Terminal Aerodrome Forecast
Issued by NWS

Home | Current Version | Previous Version | Graphics & Text | Print | Product List | Glossary On
Versions: 1 2 3 4 5 6 7 8 9 10 11 12 13 14 15 16 17 18 19 20 21
000
FTUS43 KGRB 300900 AAA
TAFAUW
TAF AMD
KAUW 300937Z 3010/3106 33009G15KT P6SM SCT020 BKN030
      TEMPO 3010/3014 SCT025
     FM301400 32005KT P6SM SCT030 BKN150
     FM310000 21004KT P6SM BKN090
     FM310400 19004KT P6SM SCT090 BKN200=

USA.gov is the U.S. government's official web portal to all federal, state and local government web resources and services.